Time;durP1;ratioP1;P1;durP2;ratioP2;P2;SDS_P1;SDS_P2;PMS_P1;PMS_P2;Temp;Humidity;BMP_temperature;BMP_pressure;BME280_temperature;BME280_humidity;BME280_pressure;Samples;Min_cycle;Max_cycle;Signal;HPM_P1;HPM_P2
2021/01/30 00:00:40;;;;;;;15.02;8.20;;;;;;;2.25;99.59;99419.22;5031460;28;20067;-79
2021/01/30 00:03:08;;;;;;;19.25;8.30;;;;;;;2.15;99.76;99417.00;5026668;28;20026;-79
2021/01/30 00:05:34;;;;;;;15.45;8.00;;;;;;;2.12;99.87;99409.69;5018553;28;20540;-79
2021/01/30 00:07:59;;;;;;;16.25;8.48;;;;;;;2.21;100.00;99416.44;5010977;28;20022;-79
2021/01/30 00:10:25;;;;;;;15.82;8.05;;;;;;;2.34;99.44;99419.91;5013677;28;20046;-80
2021/01/30 00:12:51;;;;;;;17.77;8.82;;;;;;;2.41;98.89;99423.56;5012211;28;20040;-79
2021/01/30 00:15:21;;;;;;;15.93;7.88;;;;;;;2.40;99.41;99422.00;5010023;28;20475;-79
2021/01/30 00:17:47;;;;;;;16.15;8.38;;;;;;;2.49;99.10;99433.31;5011145;28;20038;-79
2021/01/30 00:20:15;;;;;;;16.42;8.43;;;;;;;2.39;98.75;99425.00;5012321;28;20076;-78
2021/01/30 00:22:41;;;;;;;16.30;9.10;;;;;;;2.31;98.87;99436.50;4993290;28;20038;-80
2021/01/30 00:25:07;;;;;;;15.98;8.48;;;;;;;2.43;99.25;99431.19;5011773;28;20033;-79
2021/01/30 00:27:32;;;;;;;17.83;8.65;;;;;;;2.42;99.08;99437.63;5010917;28;20041;-79
2021/01/30 00:29:58;;;;;;;17.35;9.25;;;;;;;2.40;99.31;99437.19;5011646;28;20402;-78
2021/01/30 00:32:24;;;;;;;19.92;9.98;;;;;;;2.33;99.79;99447.56;5013193;28;20037;-78
2021/01/30 00:34:50;;;;;;;21.10;9.75;;;;;;;2.47;99.73;99450.69;5012014;28;20034;-79
2021/01/30 00:37:20;;;;;;;19.08;9.65;;;;;;;2.54;99.63;99446.38;5016657;28;20163;-79
2021/01/30 00:39:46;;;;;;;20.77;9.38;;;;;;;2.58;99.31;99459.75;5017218;28;20042;-79
2021/01/30 00:42:14;;;;;;;19.30;9.65;;;;;;;2.59;98.94;99448.03;5025082;28;20100;-79
2021/01/30 00:44:40;;;;;;;20.33;9.68;;;;;;;2.66;99.17;99461.53;5032371;28;20089;-79
2021/01/30 00:47:07;;;;;;;20.95;9.63;;;;;;;2.65;99.01;99452.03;5014585;28;20087;-80
2021/01/30 00:49:34;;;;;;;21.50;9.82;;;;;;;2.59;99.49;99456.00;5009501;28;20064;-79
2021/01/30 00:52:00;;;;;;;22.05;10.23;;;;;;;2.60;99.79;99468.19;5016752;28;20486;-78
2021/01/30 00:54:26;;;;;;;21.80;9.88;;;;;;;2.60;99.89;99458.34;5016964;28;20061;-77
2021/01/30 00:56:53;;;;;;;20.75;9.85;;;;;;;2.62;99.68;99464.09;5017125;28;20065;-79
2021/01/30 00:59:23;;;;;;;20.97;10.20;;;;;;;2.56;100.00;99459.31;5001360;28;20068;-78
2021/01/30 01:01:52;;;;;;;21.30;10.18;;;;;;;2.65;100.00;99466.06;5018684;28;20036;-79
2021/01/30 01:04:25;;;;;;;20.75;10.85;;;;;;;2.65;99.97;99462.66;5017079;28;20509;-79
2021/01/30 01:06:50;;;;;;;20.77;10.68;;;;;;;2.60;100.00;99476.16;5015713;28;20029;-77
2021/01/30 01:09:18;;;;;;;20.75;10.15;;;;;;;2.58;100.00;99481.78;5013707;28;20491;-79
2021/01/30 01:11:46;;;;;;;20.98;10.35;;;;;;;2.57;100.00;99482.91;5018338;28;20414;-80
2021/01/30 01:14:12;;;;;;;21.17;9.80;;;;;;;2.50;100.00;99479.22;5017302;28;20566;-79
2021/01/30 01:16:37;;;;;;;21.73;10.02;;;;;;;2.56;100.00;99481.34;5002937;28;20041;-80
2021/01/30 01:19:04;;;;;;;20.50;10.02;;;;;;;2.61;100.00;99483.03;5015334;28;20445;-78
2021/01/30 01:21:30;;;;;;;21.20;9.73;;;;;;;2.74;100.00;99488.03;4995104;28;20034;-79
2021/01/30 01:23:55;;;;;;;17.38;8.85;;;;;;;2.64;100.00;99492.97;5012551;28;20044;-80
2021/01/30 01:26:21;;;;;;;18.70;9.15;;;;;;;2.62;100.00;99489.88;5017526;28;20034;-80
2021/01/30 01:28:49;;;;;;;17.58;9.15;;;;;;;2.62;100.00;99492.53;5017034;28;20081;-78
2021/01/30 01:31:15;;;;;;;17.20;9.07;;;;;;;2.65;100.00;99494.56;5012991;28;20030;-80
2021/01/30 01:33:40;;;;;;;16.10;8.73;;;;;;;2.49;100.00;99522.84;5012292;28;20052;-79
2021/01/30 01:36:16;;;;;;;15.77;8.07;;;;;;;2.48;100.00;99513.31;5007238;28;20056;-80
2021/01/30 01:38:41;;;;;;;21.13;8.90;;;;;;;2.56;100.00;99513.22;5016513;28;20482;-78
2021/01/30 01:41:08;;;;;;;15.48;8.10;;;;;;;2.66;100.00;99512.03;5014269;28;20033;-78
2021/01/30 01:43:33;;;;;;;18.92;8.85;;;;;;;2.69;100.00;99516.69;5017411;28;20137;-77
2021/01/30 01:46:08;;;;;;;16.63;8.32;;;;;;;2.60;100.00;99511.47;4996116;28;20034;-77
2021/01/30 01:48:37;;;;;;;14.95;8.15;;;;;;;2.75;100.00;99526.75;5002848;28;20508;-79
2021/01/30 01:51:05;;;;;;;15.82;8.48;;;;;;;2.85;100.00;99520.25;5012355;28;20458;-79
2021/01/30 01:53:33;;;;;;;15.88;8.63;;;;;;;2.68;100.00;99518.56;5015501;28;20486;-79
2021/01/30 01:56:02;;;;;;;15.60;8.00;;;;;;;2.64;100.00;99523.00;5014691;28;20544;-80
2021/01/30 01:58:33;;;;;;;15.25;8.18;;;;;;;2.65;100.00;99518.47;5013761;28;20129;-79
2021/01/30 02:00:59;;;;;;;16.70;8.85;;;;;;;2.69;100.00;99527.31;4996313;28;20036;-78
2021/01/30 02:03:26;;;;;;;13.30;7.47;;;;;;;2.62;100.00;99533.16;5012565;28;20042;-80
2021/01/30 02:05:59;;;;;;;18.02;8.55;;;;;;;2.67;100.00;99534.84;5016655;28;20494;-78
2021/01/30 02:08:24;;;;;;;15.05;8.05;;;;;;;2.62;100.00;99549.13;5016993;28;20038;-79
2021/01/30 02:10:52;;;;;;;17.77;8.18;;;;;;;2.69;100.00;99551.25;5009464;28;20056;-79
2021/01/30 02:13:25;;;;;;;15.20;7.85;;;;;;;2.51;100.00;99547.22;5035019;28;20037;-78
2021/01/30 02:15:58;;;;;;;16.33;8.43;;;;;;;2.68;100.00;99549.69;5024364;28;20034;-79
2021/01/30 02:18:35;;;;;;;14.45;7.57;;;;;;;2.66;100.00;99555.31;5014756;28;20038;-78
2021/01/30 02:21:16;;;;;;;15.93;8.50;;;;;;;2.75;100.00;99557.88;5005113;28;20030;-77
2021/01/30 02:24:15;;;;;;;15.95;8.77;;;;;;;2.82;100.00;99555.47;4997437;28;20038;-77
2021/01/30 02:27:06;;;;;;;15.35;7.90;;;;;;;2.81;100.00;99555.81;5009261;28;20041;-79
2021/01/30 02:29:47;;;;;;;14.35;7.70;;;;;;;2.80;100.00;99562.22;5014563;28;20104;-79
2021/01/30 02:32:39;;;;;;;15.90;8.33;;;;;;;2.84;100.00;99561.22;5014554;28;20040;-78
2021/01/30 02:35:23;;;;;;;17.75;8.73;;;;;;;2.72;100.00;99550.56;5017991;28;20052;-78
2021/01/30 02:37:58;;;;;;;16.02;8.68;;;;;;;2.68;100.00;99555.78;5013303;28;20034;-79
2021/01/30 02:40:28;;;;;;;17.52;9.15;;;;;;;2.73;100.00;99557.41;5019077;28;20075;-78
2021/01/30 02:43:00;;;;;;;16.88;8.70;;;;;;;2.78;100.00;99562.53;5027130;28;20091;-79
2021/01/30 02:45:29;;;;;;;15.18;8.32;;;;;;;2.81;100.00;99555.81;5028296;28;20040;-80
2021/01/30 02:48:16;;;;;;;17.55;8.80;;;;;;;2.77;100.00;99560.22;5010494;28;20060;-79
2021/01/30 02:50:45;;;;;;;18.42;8.68;;;;;;;2.83;100.00;99569.53;5012542;28;20072;-78
2021/01/30 02:53:16;;;;;;;17.77;9.07;;;;;;;2.79;100.00;99572.06;5005915;28;20033;-78
2021/01/30 02:55:43;;;;;;;;;;;;;;;2.74;100.00;99566.97;5023582;28;20042;-78
2021/01/30 02:58:12;;;;;;;18.83;8.98;;;;;;;2.69;100.00;99581.22;5011339;28;19976;-78
2021/01/30 03:00:39;;;;;;;18.00;8.95;;;;;;;2.50;100.00;99593.44;5019905;28;20061;-78
2021/01/30 03:03:05;;;;;;;17.73;9.20;;;;;;;2.55;100.00;99595.94;5008642;28;20029;-79
2021/01/30 03:05:30;;;;;;;19.48;9.05;;;;;;;2.68;100.00;99608.13;5010073;28;20034;-79
2021/01/30 03:08:06;;;;;;;18.27;9.23;;;;;;;2.79;100.00;99617.22;5016707;28;20026;-78
2021/01/30 03:10:32;;;;;;;16.50;9.07;;;;;;;2.60;100.00;99609.78;5014239;28;20044;-77
2021/01/30 03:13:07;;;;;;;16.65;8.98;;;;;;;2.52;100.00;99612.50;4992046;28;20026;-80
2021/01/30 03:15:54;;;;;;;17.90;9.27;;;;;;;2.60;100.00;99611.66;5008638;28;20073;-78
2021/01/30 03:18:25;;;;;;;20.33;10.32;;;;;;;2.67;100.00;99615.31;5025207;28;20029;-79
2021/01/30 03:20:52;;;;;;;16.50;9.10;;;;;;;2.77;100.00;99610.72;5012651;28;20056;-78
2021/01/30 03:23:19;;;;;;;17.48;9.30;;;;;;;2.85;100.00;99618.59;5009452;28;20375;-79
2021/01/30 03:25:46;;;;;;;20.15;10.02;;;;;;;2.85;100.00;99628.44;5013586;28;20033;-79
2021/01/30 03:28:12;;;;;;;18.42;9.82;;;;;;;2.91;100.00;99629.78;5011060;28;20072;-79
2021/01/30 03:30:38;;;;;;;19.67;9.68;;;;;;;2.82;100.00;99631.75;5006482;28;20022;-77
2021/01/30 03:33:06;;;;;;;19.45;9.75;;;;;;;2.93;100.00;99635.53;5018201;28;20813;-78
2021/01/30 03:35:32;;;;;;;20.58;10.23;;;;;;;2.93;100.00;99644.31;5008345;28;20073;-77
2021/01/30 03:37:58;;;;;;;18.80;9.60;;;;;;;2.95;100.00;99650.06;5014013;28;20486;-79
2021/01/30 03:40:24;;;;;;;18.88;9.48;;;;;;;2.98;100.00;99646.00;5010588;28;20092;-77
2021/01/30 03:42:50;;;;;;;19.65;9.77;;;;;;;3.00;100.00;99649.09;5012753;28;20038;-78
2021/01/30 03:45:19;;;;;;;20.52;10.93;;;;;;;3.05;100.00;99649.66;5012073;28;20032;-79
2021/01/30 03:47:45;;;;;;;22.33;10.43;;;;;;;2.94;100.00;99661.03;5004793;28;20663;-78
2021/01/30 03:50:31;;;;;;;20.73;10.23;;;;;;;2.94;100.00;99661.03;5011120;28;20099;-78
2021/01/30 03:52:56;;;;;;;20.17;10.50;;;;;;;2.96;100.00;99658.81;4948253;28;20043;-79
2021/01/30 03:55:24;;;;;;;21.95;11.50;;;;;;;2.95;100.00;99663.38;4952292;29;20839;-77
2021/01/30 03:57:50;;;;;;;23.95;11.27;;;;;;;3.03;100.00;99651.09;4950583;29;20073;-79
2021/01/30 04:00:22;;;;;;;26.27;11.88;;;;;;;3.02;100.00;99657.53;4949836;29;20045;-78
2021/01/30 04:02:49;;;;;;;25.02;11.65;;;;;;;2.95;100.00;99658.03;4952547;29;20043;-80
2021/01/30 04:05:22;;;;;;;23.83;11.32;;;;;;;2.78;100.00;99660.88;4931330;29;20416;-80
2021/01/30 04:07:48;;;;;;;24.05;11.05;;;;;;;2.75;100.00;99664.97;4950740;28;20074;-79
2021/01/30 04:10:19;;;;;;;25.40;11.88;;;;;;;2.95;100.00;99666.03;4932083;29;20054;-77
2021/01/30 04:12:44;;;;;;;22.38;11.25;;;;;;;2.96;100.00;99664.91;4949115;29;20579;-77
2021/01/30 04:15:23;;;;;;;24.02;11.10;;;;;;;2.98;100.00;99669.91;4943548;28;20034;-77
2021/01/30 04:17:48;;;;;;;23.55;11.50;;;;;;;2.80;100.00;99674.63;4948486;29;20098;-76
2021/01/30 04:20:15;;;;;;;21.30;10.07;;;;;;;2.79;100.00;99675.69;4948417;29;20477;-77
2021/01/30 04:22:40;;;;;;;20.08;10.27;;;;;;;2.85;100.00;99671.75;4949860;29;20051;-78
2021/01/30 04:25:08;;;;;;;23.40;11.45;;;;;;;2.75;100.00;99682.78;4947369;29;20037;-78
2021/01/30 04:27:33;;;;;;;24.45;11.80;;;;;;;2.71;100.00;99692.50;4945711;29;20045;-78
2021/01/30 04:30:00;;;;;;;22.65;10.93;;;;;;;2.83;100.00;99691.81;4976219;28;20133;-78
2021/01/30 04:32:25;;;;;;;23.23;10.68;;;;;;;2.75;100.00;99698.72;5008716;28;20030;-77
2021/01/30 04:34:51;;;;;;;23.02;11.23;;;;;;;2.78;100.00;99699.97;5007918;28;20026;-77
2021/01/30 04:37:16;;;;;;;22.35;11.07;;;;;;;2.70;100.00;99690.97;5010371;28;20033;-78
2021/01/30 04:39:42;;;;;;;25.02;10.90;;;;;;;2.68;100.00;99704.56;5008405;28;20041;-78
2021/01/30 04:42:10;;;;;;;21.70;10.85;;;;;;;2.70;100.00;99704.25;5003975;28;20069;-77
2021/01/30 04:45:01;;;;;;;21.63;11.13;;;;;;;2.86;100.00;99704.44;5007498;28;20117;-79
2021/01/30 04:47:29;;;;;;;23.67;11.27;;;;;;;2.86;100.00;99699.91;5002175;28;20042;-78
2021/01/30 04:50:02;;;;;;;23.02;11.27;;;;;;;2.96;100.00;99693.38;5002653;28;20038;-79
2021/01/30 04:52:50;;;;;;;21.48;10.68;;;;;;;2.83;100.00;99699.78;5008363;28;20034;-77
2021/01/30 04:55:56;;;;;;;26.10;11.48;;;;;;;2.83;100.00;99692.56;5011408;28;20033;-78
2021/01/30 04:58:46;;;;;;;22.45;10.13;;;;;;;2.72;100.00;99691.41;5004508;28;20058;-78
2021/01/30 05:01:20;;;;;;;24.17;10.80;;;;;;;2.79;100.00;99702.28;5000891;28;20025;-77
2021/01/30 05:04:04;;;;;;;24.65;11.95;;;;;;;2.75;100.00;99696.84;5011135;28;20077;-78
2021/01/30 05:06:48;;;;;;;23.38;11.35;;;;;;;2.86;100.00;99699.09;5007189;28;20030;-79
2021/01/30 05:09:25;;;;;;;22.35;10.43;;;;;;;2.82;100.00;99696.34;4990569;28;20065;-79
2021/01/30 05:12:00;;;;;;;21.42;10.65;;;;;;;2.79;100.00;99698.88;5011299;28;20041;-77
2021/01/30 05:14:33;;;;;;;23.77;10.57;;;;;;;2.84;100.00;99702.09;5009398;28;20562;-76
2021/01/30 05:17:14;;;;;;;20.23;10.05;;;;;;;2.86;100.00;99702.56;5018332;28;20109;-77
2021/01/30 05:19:45;;;;;;;20.23;9.70;;;;;;;2.88;100.00;99702.22;5010181;28;20033;-79
2021/01/30 05:22:14;;;;;;;22.13;10.05;;;;;;;2.86;100.00;99707.09;5004397;28;20538;-78
2021/01/30 05:24:44;;;;;;;19.58;9.55;;;;;;;2.98;100.00;99707.13;5013575;28;20041;-80
2021/01/30 05:27:31;;;;;;;21.70;10.60;;;;;;;3.01;99.62;99709.13;5012217;28;20025;-78
2021/01/30 05:30:21;;;;;;;22.48;10.70;;;;;;;2.90;99.91;99715.97;5010265;28;20042;-77
2021/01/30 05:33:10;;;;;;;20.73;10.00;;;;;;;2.93;99.55;99704.66;5008581;28;20030;-78
2021/01/30 05:35:50;;;;;;;21.65;9.98;;;;;;;3.00;99.52;99716.31;5012014;28;20088;-78
2021/01/30 05:38:30;;;;;;;23.02;10.13;;;;;;;2.88;99.19;99710.19;5015588;28;20026;-80
2021/01/30 05:41:06;;;;;;;23.42;11.25;;;;;;;2.90;99.20;99719.41;4997664;28;20506;-79
2021/01/30 05:44:06;;;;;;;21.58;10.65;;;;;;;2.91;99.47;99723.59;5020684;28;20042;-79
2021/01/30 05:46:32;;;;;;;20.17;10.23;;;;;;;2.89;99.96;99725.03;5002455;28;20049;-79
2021/01/30 05:49:02;;;;;;;19.65;10.07;;;;;;;2.74;100.00;99729.84;5013505;28;20033;-79
2021/01/30 05:51:35;;;;;;;22.30;11.13;;;;;;;2.77;100.00;99722.34;5015093;28;20034;-79
2021/01/30 05:54:01;;;;;;;21.88;10.45;;;;;;;2.71;100.00;99733.16;5016395;28;20482;-78
2021/01/30 05:56:30;;;;;;;22.38;10.60;;;;;;;2.63;100.00;99739.31;5014677;28;20096;-78
2021/01/30 05:58:56;;;;;;;25.10;10.88;;;;;;;2.69;100.00;99745.22;5011379;28;20438;-77
2021/01/30 06:01:23;;;;;;;22.17;10.38;;;;;;;2.70;100.00;99746.75;5013317;28;20076;-78
2021/01/30 06:03:53;;;;;;;22.90;10.80;;;;;;;2.80;100.00;99748.25;5016094;28;20191;-78
2021/01/30 06:06:19;;;;;;;19.50;9.80;;;;;;;2.88;99.75;99755.38;5011290;28;20025;-80
2021/01/30 06:09:07;;;;;;;22.35;10.50;;;;;;;2.91;99.67;99757.38;5012802;28;20041;-77
2021/01/30 06:11:48;;;;;;;20.83;9.68;;;;;;;2.78;99.72;99759.22;5008752;28;20442;-79
2021/01/30 06:14:30;;;;;;;23.30;11.43;;;;;;;2.61;99.93;99764.66;5012594;28;20062;-78
2021/01/30 06:16:59;;;;;;;26.38;10.93;;;;;;;2.66;100.00;99762.59;5016087;28;20038;-78
2021/01/30 06:19:32;;;;;;;23.38;11.82;;;;;;;2.77;100.00;99765.63;5010310;28;20038;-79
2021/01/30 06:22:22;;;;;;;21.10;10.63;;;;;;;2.72;100.00;99769.25;5007003;28;20030;-77
2021/01/30 06:24:48;;;;;;;26.65;11.32;;;;;;;2.72;100.00;99773.78;5013871;28;20406;-78
2021/01/30 06:27:40;;;;;;;26.35;11.52;;;;;;;2.61;100.00;99775.28;5020313;28;20029;-79
2021/01/30 06:30:25;;;;;;;25.23;10.85;;;;;;;2.70;100.00;99778.66;5009645;28;20048;-78
2021/01/30 06:32:58;;;;;;;25.92;10.98;;;;;;;2.73;100.00;99783.31;5014327;28;20520;-79
2021/01/30 06:35:46;;;;;;;24.88;11.65;;;;;;;2.71;100.00;99783.63;5015618;28;20048;-77
2021/01/30 06:38:30;;;;;;;25.10;11.93;;;;;;;2.67;99.85;99785.38;4977384;28;20050;-76
2021/01/30 06:40:58;;;;;;;24.08;11.23;;;;;;;2.78;99.50;99795.63;4982017;28;20050;-78
2021/01/30 06:43:30;;;;;;;24.45;11.23;;;;;;;2.67;99.70;99792.59;4985029;28;20400;-79
2021/01/30 06:46:15;;;;;;;;;;;;;;;2.61;99.13;99799.19;4975646;28;20034;-78
2021/01/30 06:48:44;;;;;;;21.75;10.77;;;;;;;2.72;98.85;99797.72;4978785;28;19915;-79
2021/01/30 06:51:39;;;;;;;25.55;12.02;;;;;;;2.75;98.46;99807.69;4991308;28;20035;-79
2021/01/30 06:54:15;;;;;;;23.58;11.65;;;;;;;2.77;98.07;99808.13;4943857;28;20050;-80
2021/01/30 06:56:42;;;;;;;31.23;12.98;;;;;;;2.71;97.76;99804.13;4970704;28;20517;-78
2021/01/30 06:59:15;;;;;;;26.67;11.45;;;;;;;2.65;98.70;99805.44;4971689;28;20126;-78
2021/01/30 07:01:47;;;;;;;31.67;12.73;;;;;;;2.63;98.12;99804.97;4979142;28;20113;-79
2021/01/30 07:04:27;;;;;;;27.58;12.40;;;;;;;2.50;98.94;99805.97;4960945;28;20046;-77
2021/01/30 07:07:14;;;;;;;28.90;12.00;;;;;;;2.59;98.72;99817.34;4975758;28;20035;-80
2021/01/30 07:10:15;;;;;;;26.92;12.15;;;;;;;2.45;98.47;99803.50;4960481;28;20034;-79
2021/01/30 07:12:48;;;;;;;;;;;;;;;2.58;97.73;99810.47;4966123;28;20070;-79
2021/01/30 07:15:31;;;;;;;24.63;10.77;;;;;;;2.39;97.42;99812.75;4996717;28;19913;-79
2021/01/30 07:18:29;;;;;;;28.92;12.18;;;;;;;2.42;97.06;99820.09;5029997;28;20022;-79
2021/01/30 07:21:06;;;;;;;30.08;12.77;;;;;;;2.40;96.98;99827.63;5013326;28;20041;-79
2021/01/30 07:23:41;;;;;;;29.10;11.75;;;;;;;2.33;96.79;99835.28;5013942;28;20042;-78
2021/01/30 07:26:23;;;;;;;27.92;11.68;;;;;;;2.44;96.67;99828.53;5026034;28;20033;-79
2021/01/30 07:28:56;;;;;;;31.77;12.65;;;;;;;2.44;96.34;99828.53;4996680;28;20049;-80
2021/01/30 07:31:29;;;;;;;28.35;12.45;;;;;;;2.50;95.72;99843.94;5016898;28;20057;-78
2021/01/30 07:34:06;;;;;;;29.63;12.15;;;;;;;2.36;96.41;99847.94;5023840;28;20029;-78
2021/01/30 07:36:37;;;;;;;29.80;12.95;;;;;;;2.35;96.10;99846.38;5012101;28;20408;-79
2021/01/30 07:39:31;;;;;;;31.52;12.65;;;;;;;2.13;97.24;99847.41;5028197;28;20040;-82
2021/01/30 07:42:06;;;;;;;28.42;12.73;;;;;;;2.10;98.06;99840.09;5029102;28;20041;-79
2021/01/30 07:45:01;;;;;;;30.88;12.48;;;;;;;1.95;98.30;99842.47;5021464;28;20037;-80
2021/01/30 07:47:47;;;;;;;28.83;12.52;;;;;;;1.85;99.14;99854.22;5024308;28;20095;-78
2021/01/30 07:50:27;;;;;;;31.73;12.90;;;;;;;1.73;99.34;99844.25;5017484;28;20862;-78
2021/01/30 07:53:34;;;;;;;29.55;12.63;;;;;;;1.68;99.98;99851.59;5026892;28;20068;-79
2021/01/30 07:56:17;;;;;;;26.48;12.18;;;;;;;1.59;99.46;99848.16;4979602;28;20041;-78
2021/01/30 07:59:07;;;;;;;31.23;12.40;;;;;;;1.51;100.00;99833.84;5012707;28;20029;-78
2021/01/30 08:02:10;;;;;;;30.30;13.15;;;;;;;1.47;100.00;99832.16;5019880;28;20040;-79
2021/01/30 08:04:48;;;;;;;29.38;13.32;;;;;;;1.41;100.00;99828.09;5019659;28;20030;-80
2021/01/30 08:07:45;;;;;;;26.85;12.25;;;;;;;1.63;100.00;99831.31;5009885;28;20038;-78
2021/01/30 08:10:35;;;;;;;28.70;12.65;;;;;;;1.79;100.00;99845.66;5012798;28;20037;-80
2021/01/30 08:13:14;;;;;;;31.45;13.75;;;;;;;1.92;99.59;99848.44;5011706;28;20034;-77
2021/01/30 08:15:48;;;;;;;33.63;13.05;;;;;;;2.01;98.24;99855.28;5014614;28;20037;-79
2021/01/30 08:18:29;;;;;;;30.58;12.65;;;;;;;2.03;98.72;99846.97;5010069;28;20041;-77
2021/01/30 08:20:59;;;;;;;38.67;14.90;;;;;;;2.15;98.40;99849.75;5000871;28;20668;-77
2021/01/30 08:23:43;;;;;;;35.53;14.48;;;;;;;2.18;98.12;99857.84;5010244;28;20030;-79
2021/01/30 08:26:48;;;;;;;33.30;13.00;;;;;;;2.16;98.06;99849.44;5014027;28;20486;-80
2021/01/30 08:29:41;;;;;;;31.67;13.35;;;;;;;2.17;98.31;99842.25;4980004;28;20092;-80
2021/01/30 08:32:25;;;;;;;28.80;13.07;;;;;;;2.13;98.91;99849.28;5021176;28;20084;-77
2021/01/30 08:34:53;;;;;;;32.78;13.75;;;;;;;2.22;99.17;99855.34;5011433;28;20042;-79
2021/01/30 08:37:18;;;;;;;32.17;13.85;;;;;;;1.95;98.22;99845.13;5007337;28;20030;-77
2021/01/30 08:40:12;;;;;;;27.80;12.70;;;;;;;2.15;99.27;99852.41;5014882;28;20042;-77
2021/01/30 08:42:57;;;;;;;24.48;12.50;;;;;;;2.51;98.98;99858.03;5002425;28;20065;-82
2021/01/30 08:45:31;;;;;;;26.73;11.80;;;;;;;2.80;97.85;99857.22;5023261;28;20084;-79
2021/01/30 08:48:31;;;;;;;26.35;12.10;;;;;;;2.97;96.27;99857.88;5011393;28;20038;-78
2021/01/30 08:50:58;;;;;;;24.27;11.00;;;;;;;2.75;94.71;99868.81;5030616;28;20130;-79
2021/01/30 08:53:23;;;;;;;25.70;11.75;;;;;;;3.09;95.10;99873.13;5002359;28;20029;-77
2021/01/30 08:56:05;;;;;;;21.80;11.40;;;;;;;3.09;93.76;99876.59;5001313;28;20505;-79
2021/01/30 08:58:37;;;;;;;22.25;10.77;;;;;;;3.23;93.45;99871.75;5016933;28;20050;-80
2021/01/30 09:01:10;;;;;;;20.75;10.48;;;;;;;3.27;92.47;99872.66;5004301;28;20157;-80
2021/01/30 09:03:51;;;;;;;20.88;10.45;;;;;;;3.43;92.51;99870.97;5018893;28;20044;-79
2021/01/30 09:06:41;;;;;;;20.13;10.30;;;;;;;3.54;91.63;99874.78;5013820;28;20088;-79
2021/01/30 09:09:18;;;;;;;19.35;9.68;;;;;;;3.68;91.89;99875.28;5013060;28;20034;-79
2021/01/30 09:11:48;;;;;;;18.77;9.45;;;;;;;3.88;90.43;99875.56;5021693;28;20379;-80
2021/01/30 09:14:16;;;;;;;18.40;10.35;;;;;;;4.02;90.33;99866.19;5025520;28;20045;-79
2021/01/30 09:16:58;;;;;;;17.48;9.88;;;;;;;3.93;88.97;99868.13;5024359;28;20034;-77
2021/01/30 09:19:32;;;;;;;18.02;9.10;;;;;;;3.87;87.96;99874.03;5023996;28;20045;-79
2021/01/30 09:22:19;;;;;;;20.48;9.68;;;;;;;4.24;87.94;99879.06;5015943;28;20398;-78
2021/01/30 09:25:19;;;;;;;15.27;8.65;;;;;;;4.26;87.25;99873.41;5025978;28;20140;-80
2021/01/30 09:28:00;;;;;;;15.43;9.15;;;;;;;4.33;86.59;99884.31;5015953;28;20030;-77
2021/01/30 09:30:50;;;;;;;17.30;8.93;;;;;;;4.45;85.79;99890.41;5012476;28;20053;-80
2021/01/30 09:33:22;;;;;;;16.45;9.50;;;;;;;4.66;85.67;99884.22;5023188;28;20117;-77
2021/01/30 09:35:48;;;;;;;15.98;8.68;;;;;;;4.57;85.00;99889.63;5011003;28;20037;-80
2021/01/30 09:38:33;;;;;;;19.08;9.70;;;;;;;4.85;84.58;99890.53;5018390;28;20329;-80
2021/01/30 09:41:30;;;;;;;17.85;9.10;;;;;;;4.79;83.63;99889.19;5010441;28;20060;-79
2021/01/30 09:44:16;;;;;;;15.52;8.68;;;;;;;4.84;83.69;99886.28;5007029;28;21420;-80
2021/01/30 09:46:44;;;;;;;15.77;8.55;;;;;;;4.88;83.46;99889.84;5013856;28;20033;-76
2021/01/30 09:49:22;;;;;;;14.68;8.23;;;;;;;4.98;83.05;99897.41;5015677;28;20029;-79
2021/01/30 09:51:50;;;;;;;13.23;8.13;;;;;;;4.65;82.84;99903.97;4993029;28;20037;-76
2021/01/30 09:54:17;;;;;;;15.88;8.57;;;;;;;4.84;83.06;99899.63;5021670;28;20032;-79
2021/01/30 09:56:45;;;;;;;15.10;8.73;;;;;;;5.02;83.39;99902.84;5023869;28;20038;-78
2021/01/30 09:59:19;;;;;;;18.38;8.35;;;;;;;5.06;82.54;99895.72;5015255;28;20054;-79
2021/01/30 10:01:45;;;;;;;13.88;8.43;;;;;;;5.04;82.50;99897.94;5017055;28;20029;-79
2021/01/30 10:04:21;;;;;;;15.45;8.82;;;;;;;5.20;81.89;99898.81;5019499;28;20055;-78
2021/01/30 10:06:48;;;;;;;15.75;9.68;;;;;;;5.22;82.37;99889.34;5013935;28;20039;-79
2021/01/30 10:09:18;;;;;;;15.00;8.63;;;;;;;5.38;81.59;99895.53;5019592;28;20256;-79
2021/01/30 10:11:49;;;;;;;14.18;8.40;;;;;;;5.37;81.27;99893.19;5015358;28;20049;-79
2021/01/30 10:14:17;;;;;;;13.95;8.18;;;;;;;5.36;81.79;99897.75;5021917;28;20042;-78
2021/01/30 10:16:54;;;;;;;13.85;8.90;;;;;;;5.33;80.10;99897.66;5020985;28;20108;-79
2021/01/30 10:19:27;;;;;;;15.30;8.68;;;;;;;5.56;80.23;99901.34;5019497;28;20060;-80
2021/01/30 10:21:53;;;;;;;14.57;8.60;;;;;;;5.53;80.23;99911.94;5011211;28;20128;-79
2021/01/30 10:24:21;;;;;;;11.02;7.55;;;;;;;5.75;80.06;99914.84;5019716;28;20057;-77
2021/01/30 10:26:49;;;;;;;14.98;7.95;;;;;;;5.77;79.31;99911.88;5018819;28;20466;-79
2021/01/30 10:29:18;;;;;;;12.35;8.05;;;;;;;5.75;78.86;99912.19;5025445;28;20037;-79
2021/01/30 10:31:49;;;;;;;11.77;6.95;;;;;;;5.54;78.31;99914.28;5022877;28;20403;-78
2021/01/30 10:34:18;;;;;;;15.13;7.65;;;;;;;5.63;79.25;99922.16;5023562;28;20029;-78
2021/01/30 10:37:08;;;;;;;11.82;7.40;;;;;;;5.52;79.19;99926.41;5013023;28;20037;-78
2021/01/30 10:39:38;;;;;;;14.13;7.22;;;;;;;5.41;79.14;99923.44;5013133;28;20033;-78
2021/01/30 10:42:09;;;;;;;12.43;7.43;;;;;;;5.35;79.09;99916.78;5011500;28;20545;-80
2021/01/30 10:44:36;;;;;;;13.27;7.93;;;;;;;5.25;80.28;99922.56;5015609;28;20875;-79
2021/01/30 10:47:04;;;;;;;12.73;8.30;;;;;;;5.27;79.86;99926.47;5021031;28;20451;-79
2021/01/30 10:49:32;;;;;;;13.90;8.43;;;;;;;5.49;79.98;99923.31;5017851;28;20541;-78
2021/01/30 10:52:09;;;;;;;15.32;9.13;;;;;;;5.65;79.48;99925.25;5008489;28;20136;-78
2021/01/30 10:54:35;;;;;;;12.40;6.95;;;;;;;5.66;79.09;99921.47;5003285;28;20037;-78
2021/01/30 10:57:00;;;;;;;12.57;7.38;;;;;;;5.60;79.19;99920.13;5014103;28;20038;-79
2021/01/30 10:59:26;;;;;;;11.65;7.53;;;;;;;5.37;79.78;99920.66;5012596;28;20040;-79
2021/01/30 11:01:52;;;;;;;11.52;7.22;;;;;;;5.23;79.37;99920.25;5006254;28;20107;-79
2021/01/30 11:04:26;;;;;;;11.27;7.15;;;;;;;4.93;80.93;99926.19;5019703;28;20061;-78
2021/01/30 11:06:58;;;;;;;11.63;6.65;;;;;;;5.01;81.72;99914.63;5018775;28;20029;-80
2021/01/30 11:09:31;;;;;;;10.30;6.60;;;;;;;5.19;81.39;99931.94;5012684;28;20044;-78
2021/01/30 11:12:17;;;;;;;11.27;6.93;;;;;;;5.44;79.66;99923.53;5016366;28;20397;-76
2021/01/30 11:14:43;;;;;;;12.70;7.50;;;;;;;5.37;79.94;99914.53;5015154;28;20376;-79
2021/01/30 11:17:27;;;;;;;13.25;7.38;;;;;;;5.52;79.46;99921.84;5013470;28;20516;-78
2021/01/30 11:19:54;;;;;;;11.10;6.85;;;;;;;5.34;79.33;99910.66;5020561;28;20029;-79
2021/01/30 11:22:23;;;;;;;13.13;7.55;;;;;;;5.31;78.94;99915.91;5026473;28;20120;-76
2021/01/30 11:24:51;;;;;;;11.48;7.35;;;;;;;5.40;78.26;99917.31;5001788;28;20066;-78
2021/01/30 11:27:36;;;;;;;12.13;7.50;;;;;;;5.49;76.83;99917.97;5020591;28;20040;-77
2021/01/30 11:30:23;;;;;;;11.70;7.18;;;;;;;5.37;76.96;99915.34;5017313;28;20620;-78
2021/01/30 11:32:55;;;;;;;10.60;7.13;;;;;;;5.53;77.74;99912.72;5017722;28;20033;-79
2021/01/30 11:35:29;;;;;;;10.48;6.72;;;;;;;5.33;77.64;99914.44;5010995;28;20033;-79
2021/01/30 11:38:00;;;;;;;11.10;6.97;;;;;;;5.47;77.41;99909.53;5008600;28;20040;-79
2021/01/30 11:40:26;;;;;;;11.75;7.15;;;;;;;5.49;77.13;99906.50;5014626;28;20041;-78
2021/01/30 11:42:51;;;;;;;12.45;6.63;;;;;;;5.50;76.82;99906.16;5015233;28;20025;-79
2021/01/30 11:45:17;;;;;;;13.05;6.57;;;;;;;5.60;76.98;99906.78;5009693;28;20070;-79
2021/01/30 11:47:42;;;;;;;10.05;6.60;;;;;;;5.42;77.07;99906.28;5009033;28;20026;-78
2021/01/30 11:50:09;;;;;;;9.40;5.97;;;;;;;5.49;76.70;99901.97;5021254;28;20036;-80
2021/01/30 11:52:34;;;;;;;11.95;6.65;;;;;;;5.47;75.31;99908.75;5015394;28;20029;-79
2021/01/30 11:55:03;;;;;;;9.45;5.72;;;;;;;5.40;75.11;99905.88;5022254;28;20041;-75
2021/01/30 11:57:29;;;;;;;11.00;6.35;;;;;;;5.35;76.40;99901.53;5015771;28;20131;-79